createdAt,value
2023-05-15T00:00:19.009Z,14.46
2023-05-15T00:02:46.345Z,14.46
2023-05-15T00:05:13.941Z,14.40
2023-05-15T00:07:41.634Z,14.30
2023-05-15T00:10:09.449Z,14.21
2023-05-15T00:12:38.123Z,14.20
2023-05-15T00:15:06.716Z,14.32
2023-05-15T00:17:34.094Z,14.39
2023-05-15T00:20:01.610Z,14.30
2023-05-15T00:22:28.917Z,14.35
2023-05-15T00:24:56.281Z,14.44
2023-05-15T00:27:23.552Z,14.41
2023-05-15T00:29:52.415Z,14.44
2023-05-15T00:32:19.961Z,14.49
2023-05-15T00:34:47.277Z,14.40
2023-05-15T00:37:14.669Z,14.43
2023-05-15T00:39:42.044Z,14.40
2023-05-15T00:42:10.275Z,14.39
2023-05-15T00:44:40.300Z,14.48
2023-05-15T00:47:10.748Z,14.54
2023-05-15T00:49:38.635Z,14.52
2023-05-15T00:52:06.138Z,14.37
2023-05-15T00:54:33.483Z,14.31
2023-05-15T00:57:02.258Z,14.21
2023-05-15T00:59:31.688Z,14.30
2023-05-15T01:01:59.103Z,14.18
2023-05-15T01:04:28.231Z,14.20
2023-05-15T01:06:55.721Z,14.10
2023-05-15T01:09:25.130Z,14.09
2023-05-15T01:11:54.843Z,14.14
2023-05-15T01:14:22.190Z,14.25
2023-05-15T01:16:49.995Z,14.26
2023-05-15T01:19:17.631Z,14.09
2023-05-15T01:22:19.124Z,13.98
2023-05-15T01:25:20.652Z,14.06
2023-05-15T01:27:52.371Z,14.13
2023-05-15T01:30:23.018Z,14.09
2023-05-15T01:33:00.719Z,14.09
2023-05-15T01:35:33.081Z,14.12
2023-05-15T01:38:19.066Z,14.21
2023-05-15T01:40:48.193Z,14.18
2023-05-15T01:43:22.604Z,14.16
2023-05-15T01:45:49.954Z,14.18
2023-05-15T01:48:19.563Z,14.16
2023-05-15T01:50:49.730Z,14.18
2023-05-15T01:53:19.653Z,14.18
2023-05-15T01:55:48.743Z,14.27
2023-05-15T01:58:18.921Z,14.36
2023-05-15T02:00:47.824Z,14.28
2023-05-15T02:03:15.936Z,14.15
2023-05-15T02:05:43.510Z,14.17
2023-05-15T02:08:12.084Z,14.06
2023-05-15T02:10:40.310Z,14.10
2023-05-15T02:13:09.204Z,14.08
2023-05-15T02:15:38.659Z,14.00
2023-05-15T02:18:06.126Z,14.03
2023-05-15T02:20:33.409Z,13.93
2023-05-15T02:23:00.946Z,13.99
2023-05-15T02:25:38.506Z,14.09
2023-05-15T02:28:12.171Z,14.06
2023-05-15T02:30:49.617Z,14.05
2023-05-15T02:33:25.851Z,14.03
2023-05-15T02:35:59.135Z,14.04
2023-05-15T02:38:30.360Z,13.99
2023-05-15T02:40:59.487Z,14.01
2023-05-15T02:43:27.245Z,14.02
2023-05-15T02:45:57.222Z,14.05
2023-05-15T02:48:25.197Z,14.07
2023-05-15T02:50:52.762Z,14.18
2023-05-15T02:53:20.198Z,14.31
2023-05-15T02:55:47.620Z,14.28
2023-05-15T02:58:15.137Z,14.30
2023-05-15T03:00:42.530Z,14.31
2023-05-15T03:03:11.248Z,14.32
2023-05-15T03:05:38.643Z,14.31
2023-05-15T03:08:06.173Z,14.24
2023-05-15T03:10:33.525Z,14.05
2023-05-15T03:13:00.927Z,14.05
2023-05-15T03:15:28.336Z,14.04
2023-05-15T03:17:55.718Z,14.07
2023-05-15T03:20:25.599Z,13.96
2023-05-15T03:22:52.997Z,14.06
2023-05-15T03:25:20.400Z,14.12
2023-05-15T03:27:47.740Z,14.05
2023-05-15T03:30:15.096Z,14.02
2023-05-15T03:32:42.422Z,14.02
2023-05-15T03:35:10.444Z,14.00
2023-05-15T03:37:39.178Z,13.91
2023-05-15T03:40:07.945Z,13.91
2023-05-15T03:42:35.304Z,13.76
2023-05-15T03:45:02.861Z,13.89
2023-05-15T03:47:30.161Z,13.74
2023-05-15T03:49:57.511Z,13.61
2023-05-15T03:52:24.937Z,13.63
2023-05-15T03:54:53.873Z,13.69
2023-05-15T03:57:21.327Z,13.58
2023-05-15T03:59:48.594Z,13.57
2023-05-15T04:02:16.034Z,13.43
2023-05-15T04:04:43.367Z,13.41
2023-05-15T04:07:10.949Z,13.48
2023-05-15T04:09:38.235Z,13.52
2023-05-15T04:12:07.504Z,13.66
2023-05-15T04:14:34.835Z,13.62
2023-05-15T04:17:02.168Z,13.80
2023-05-15T04:19:29.530Z,13.64
2023-05-15T04:21:56.870Z,13.71
2023-05-15T04:24:24.442Z,13.80
2023-05-15T04:26:51.745Z,13.81
2023-05-15T04:29:20.399Z,13.89
2023-05-15T04:31:47.848Z,13.89
2023-05-15T04:34:15.185Z,13.93
2023-05-15T04:36:43.046Z,13.82
2023-05-15T04:39:10.492Z,13.76
2023-05-15T04:41:37.813Z,13.74
2023-05-15T04:44:05.379Z,13.69
2023-05-15T04:46:34.468Z,13.81
2023-05-15T04:49:01.831Z,13.84
2023-05-15T04:51:29.107Z,13.68
2023-05-15T04:53:56.349Z,13.71
2023-05-15T04:56:23.752Z,13.73
2023-05-15T04:58:51.146Z,13.59
2023-05-15T05:01:18.466Z,13.55
2023-05-15T05:03:47.291Z,13.78
2023-05-15T05:06:14.773Z,13.92
2023-05-15T05:08:42.192Z,14.00
2023-05-15T05:11:09.540Z,14.05
2023-05-15T05:13:36.840Z,14.04
2023-05-15T05:16:04.668Z,13.95
2023-05-15T05:18:32.108Z,13.87
2023-05-15T05:21:01.236Z,13.80
2023-05-15T05:23:28.917Z,13.75
2023-05-15T05:25:56.467Z,13.69
2023-05-15T05:28:23.845Z,13.70
2023-05-15T05:30:51.389Z,13.69
2023-05-15T05:33:18.680Z,13.82
2023-05-15T05:35:45.955Z,13.70
2023-05-15T05:38:14.866Z,13.78
2023-05-15T05:40:42.606Z,13.66
2023-05-15T05:43:09.940Z,13.79
2023-05-15T05:45:37.378Z,13.79
2023-05-15T05:48:04.975Z,13.77
2023-05-15T05:50:32.432Z,13.70
2023-05-15T05:52:59.724Z,13.81
2023-05-15T05:55:28.453Z,13.94
2023-05-15T05:57:55.832Z,14.01
2023-05-15T06:00:24.664Z,14.05
2023-05-15T06:02:56.408Z,14.09
2023-05-15T06:05:24.389Z,13.98
2023-05-15T06:07:52.098Z,13.89
2023-05-15T06:10:20.290Z,13.87
2023-05-15T06:12:49.274Z,13.79
2023-05-15T06:15:16.690Z,13.85
2023-05-15T06:17:44.149Z,13.95
2023-05-15T06:20:12.053Z,13.96
2023-05-15T06:22:39.454Z,13.72
2023-05-15T06:25:07.851Z,13.82
2023-05-15T06:27:35.154Z,13.87
2023-05-15T06:30:04.693Z,13.96
2023-05-15T06:32:34.294Z,13.90
2023-05-15T06:35:01.870Z,13.93
2023-05-15T06:37:30.240Z,13.96
2023-05-15T06:39:57.539Z,13.91
2023-05-15T06:42:25.081Z,13.89
2023-05-15T06:44:52.415Z,13.84
2023-05-15T06:47:21.103Z,14.09
2023-05-15T06:49:48.516Z,14.01
2023-05-15T06:52:15.840Z,13.98
2023-05-15T06:54:43.176Z,14.05
2023-05-15T06:57:10.451Z,14.21
2023-05-15T06:59:38.163Z,14.36
2023-05-15T07:02:05.793Z,14.21
2023-05-15T07:04:34.763Z,14.35
2023-05-15T07:07:02.355Z,14.45
2023-05-15T07:09:29.711Z,14.51
2023-05-15T07:11:57.171Z,14.49
2023-05-15T07:14:24.776Z,14.57
2023-05-15T07:16:52.135Z,14.42
2023-05-15T07:19:19.805Z,14.56
2023-05-15T07:21:48.575Z,14.76
2023-05-15T07:24:15.843Z,14.79
2023-05-15T07:26:50.649Z,14.87
2023-05-15T07:29:26.066Z,14.97
2023-05-15T07:31:53.791Z,15.08
2023-05-15T07:34:21.093Z,15.36
2023-05-15T07:36:49.890Z,15.32
2023-05-15T07:39:17.288Z,15.44
2023-05-15T07:41:44.685Z,15.69
2023-05-15T07:44:12.031Z,15.94
2023-05-15T07:46:39.380Z,15.86
2023-05-15T07:49:06.700Z,15.88
2023-05-15T07:51:34.050Z,15.71
2023-05-15T07:54:02.762Z,15.70
2023-05-15T07:56:30.078Z,15.87
2023-05-15T07:58:57.352Z,15.92
2023-05-15T08:01:33.896Z,16.32
2023-05-15T08:04:01.206Z,16.13
2023-05-15T08:06:28.699Z,16.19
2023-05-15T08:08:56.065Z,16.44
2023-05-15T08:11:24.825Z,16.41
2023-05-15T08:13:52.175Z,16.57
2023-05-15T08:16:19.546Z,16.80
2023-05-15T08:18:46.928Z,16.98
2023-05-15T08:21:14.269Z,16.68
2023-05-15T08:23:41.776Z,16.76
2023-05-15T08:26:09.051Z,16.63
2023-05-15T08:28:37.706Z,16.73
2023-05-15T08:31:05.223Z,16.56
2023-05-15T08:33:32.620Z,16.44
2023-05-15T08:36:00.151Z,16.45
2023-05-15T08:38:27.520Z,16.42
2023-05-15T08:41:01.493Z,16.38
2023-05-15T08:43:32.457Z,16.60
2023-05-15T08:46:01.955Z,16.75
2023-05-15T08:48:30.038Z,16.42
2023-05-15T08:50:59.321Z,16.78
2023-05-15T08:53:27.274Z,17.03
2023-05-15T08:55:54.963Z,17.63
2023-05-15T08:58:22.795Z,18.11
2023-05-15T09:00:52.963Z,18.57
2023-05-15T09:03:21.668Z,18.32
2023-05-15T09:05:51.783Z,18.47
2023-05-15T09:08:21.808Z,18.48
2023-05-15T09:10:49.859Z,18.74
2023-05-15T09:13:17.396Z,18.57
2023-05-15T09:15:46.169Z,18.34
2023-05-15T09:18:14.777Z,17.89
2023-05-15T09:20:43.472Z,17.35
2023-05-15T09:23:24.000Z,17.19
2023-05-15T09:25:51.381Z,16.96
2023-05-15T09:28:26.308Z,16.95
2023-05-15T09:30:57.954Z,16.94
2023-05-15T09:33:29.070Z,17.46
2023-05-15T09:35:57.754Z,17.92
2023-05-15T09:38:25.410Z,18.48
2023-05-15T09:41:01.939Z,19.35
2023-05-15T09:43:29.391Z,19.45
2023-05-15T09:45:56.773Z,19.51
2023-05-15T09:48:24.237Z,19.66
2023-05-15T09:50:51.615Z,19.74
2023-05-15T09:53:22.052Z,19.34
2023-05-15T09:55:49.864Z,19.44
2023-05-15T09:58:18.601Z,19.55
2023-05-15T10:00:48.568Z,19.93
2023-05-15T10:03:18.328Z,19.88
2023-05-15T10:05:45.814Z,19.51
2023-05-15T10:08:13.330Z,19.77
2023-05-15T10:10:42.244Z,19.39
2023-05-15T10:13:09.980Z,19.56
2023-05-15T10:15:38.898Z,19.79
2023-05-15T10:18:07.677Z,20.09
2023-05-15T10:20:35.806Z,20.16
2023-05-15T10:23:05.283Z,20.36
2023-05-15T10:25:38.190Z,20.29
2023-05-15T10:28:09.448Z,19.98
2023-05-15T10:30:37.379Z,20.00
2023-05-15T10:33:05.585Z,19.89
2023-05-15T10:35:34.142Z,19.56
2023-05-15T10:38:04.632Z,19.56
2023-05-15T10:40:32.639Z,19.46
2023-05-15T10:43:00.515Z,19.63
2023-05-15T10:45:30.802Z,19.26
2023-05-15T10:47:58.927Z,19.11
2023-05-15T10:50:27.655Z,19.38
2023-05-15T10:52:55.941Z,19.81
2023-05-15T10:55:23.794Z,19.78
2023-05-15T10:57:51.207Z,20.00
2023-05-15T11:00:26.070Z,19.92
2023-05-15T11:02:55.407Z,19.82
2023-05-15T11:05:23.766Z,19.56
2023-05-15T11:08:25.047Z,19.61
2023-05-15T11:10:52.476Z,19.51
2023-05-15T11:13:19.825Z,19.42
2023-05-15T11:15:48.477Z,19.17
2023-05-15T11:18:17.284Z,19.39
2023-05-15T11:21:08.353Z,20.08
2023-05-15T11:23:39.272Z,20.08
2023-05-15T11:26:06.630Z,20.04
2023-05-15T11:28:42.409Z,19.41
2023-05-15T11:31:09.766Z,19.22
2023-05-15T11:33:39.748Z,18.88
2023-05-15T11:36:07.970Z,19.01
2023-05-15T11:38:39.599Z,19.17
2023-05-15T11:41:18.855Z,19.08
2023-05-15T11:43:46.262Z,19.14
2023-05-15T11:46:14.063Z,18.88
2023-05-15T11:48:44.246Z,18.51
2023-05-15T11:51:16.707Z,18.40
2023-05-15T11:53:44.584Z,18.46
2023-05-15T11:56:17.166Z,18.55
2023-05-15T11:58:44.762Z,18.47
2023-05-15T12:01:12.202Z,18.58
2023-05-15T12:03:39.732Z,18.96
2023-05-15T12:06:10.529Z,19.57
2023-05-15T12:08:38.032Z,20.23
2023-05-15T12:11:06.071Z,20.38
2023-05-15T12:13:34.215Z,20.66
2023-05-15T12:16:02.519Z,20.55
2023-05-15T12:18:30.943Z,20.58
2023-05-15T12:20:58.508Z,20.36
2023-05-15T12:23:27.705Z,20.07
2023-05-15T12:25:58.537Z,20.13
2023-05-15T12:28:26.661Z,20.24
2023-05-15T12:30:54.705Z,19.95
2023-05-15T12:33:22.112Z,20.13
2023-05-15T12:35:53.495Z,20.13
2023-05-15T12:38:22.978Z,19.59
2023-05-15T12:40:53.065Z,19.41
2023-05-15T12:43:23.628Z,19.88
2023-05-15T12:45:52.738Z,20.06
2023-05-15T12:48:20.560Z,19.51
2023-05-15T12:50:47.974Z,18.82
2023-05-15T12:53:16.562Z,18.15
2023-05-15T12:55:45.387Z,18.35
2023-05-15T12:58:16.021Z,18.56
2023-05-15T13:00:43.721Z,18.71
2023-05-15T13:03:12.471Z,18.88
2023-05-15T13:05:42.986Z,19.06
2023-05-15T13:08:15.216Z,19.15
2023-05-15T13:10:42.527Z,19.19
2023-05-15T13:13:14.162Z,19.25
2023-05-15T13:15:43.406Z,18.88
2023-05-15T13:18:12.198Z,18.65
2023-05-15T13:20:42.145Z,18.53
2023-05-15T13:23:11.477Z,18.77
2023-05-15T13:25:38.985Z,19.11
2023-05-15T13:28:07.628Z,19.28
2023-05-15T13:30:36.861Z,19.80
2023-05-15T13:33:04.237Z,20.23
2023-05-15T13:35:31.577Z,20.22
2023-05-15T13:37:59.049Z,20.16
2023-05-15T13:40:26.600Z,20.08
2023-05-15T13:42:54.304Z,20.71
2023-05-15T13:45:21.704Z,20.86
2023-05-15T13:47:50.805Z,21.19
2023-05-15T13:50:18.284Z,21.04
2023-05-15T13:52:47.578Z,21.02
2023-05-15T13:55:15.022Z,20.89
2023-05-15T13:57:43.477Z,20.84
2023-05-15T14:00:13.193Z,20.73
2023-05-15T14:02:41.908Z,21.31
2023-05-15T14:05:11.753Z,21.34
2023-05-15T14:07:39.125Z,21.37
2023-05-15T14:10:07.690Z,21.33
2023-05-15T14:12:35.049Z,21.16
2023-05-15T14:15:02.423Z,21.02
2023-05-15T14:17:29.907Z,20.40
2023-05-15T14:20:00.336Z,20.07
2023-05-15T14:22:29.157Z,19.84
2023-05-15T14:24:56.444Z,19.53
2023-05-15T14:27:23.775Z,19.14
2023-05-15T14:29:51.185Z,18.92
2023-05-15T14:32:18.696Z,18.93
2023-05-15T14:34:46.043Z,18.80
2023-05-15T14:37:13.590Z,18.62
2023-05-15T14:39:42.337Z,18.92
2023-05-15T14:42:10.941Z,18.75
2023-05-15T14:44:38.224Z,18.47
2023-05-15T14:47:07.192Z,17.98
2023-05-15T14:49:34.644Z,17.86
2023-05-15T14:52:02.112Z,17.68
2023-05-15T14:54:29.560Z,17.58
2023-05-15T14:56:58.346Z,17.14
2023-05-15T14:59:26.913Z,16.90
2023-05-15T15:01:54.542Z,16.64
2023-05-15T15:04:22.143Z,16.39
2023-05-15T15:06:49.990Z,15.98
2023-05-15T15:09:18.917Z,15.60
2023-05-15T15:11:48.277Z,15.62
2023-05-15T15:14:17.104Z,15.27
2023-05-15T15:16:44.524Z,14.76
2023-05-15T15:19:12.233Z,14.68
2023-05-15T15:21:39.555Z,14.59
2023-05-15T15:24:07.356Z,14.76
2023-05-15T15:26:34.796Z,14.82
2023-05-15T15:29:04.656Z,14.79
2023-05-15T15:31:33.418Z,14.87
2023-05-15T15:34:01.401Z,14.48
2023-05-15T15:36:30.440Z,14.67
2023-05-15T15:38:57.903Z,14.70
2023-05-15T15:41:25.307Z,15.15
2023-05-15T15:43:53.097Z,15.58
2023-05-15T15:46:20.697Z,15.94
2023-05-15T15:48:49.606Z,16.11
2023-05-15T15:51:16.932Z,16.21
2023-05-15T15:53:44.263Z,16.37
2023-05-15T15:56:11.592Z,16.38
2023-05-15T15:58:38.855Z,15.73
2023-05-15T16:01:06.297Z,15.22
2023-05-15T16:03:33.784Z,14.87
2023-05-15T16:06:02.578Z,14.89
2023-05-15T16:08:30.082Z,15.01
2023-05-15T16:10:57.583Z,15.04
2023-05-15T16:13:24.921Z,15.12
2023-05-15T16:15:52.244Z,15.46
2023-05-15T16:18:19.669Z,15.57
2023-05-15T16:20:47.957Z,15.75
2023-05-15T16:23:16.719Z,15.78
2023-05-15T16:25:44.955Z,15.89
2023-05-15T16:28:12.251Z,16.13
2023-05-15T16:30:48.741Z,16.24
2023-05-15T16:33:16.904Z,16.36
2023-05-15T16:35:44.292Z,16.59
2023-05-15T16:38:11.687Z,16.66
2023-05-15T16:40:40.393Z,16.78
2023-05-15T16:43:07.717Z,16.94
2023-05-15T16:45:35.026Z,16.66
2023-05-15T16:48:02.726Z,16.68
2023-05-15T16:50:32.089Z,16.81
2023-05-15T16:52:59.654Z,16.79
2023-05-15T16:55:27.292Z,16.76
2023-05-15T16:57:56.010Z,17.01
2023-05-15T17:00:23.382Z,17.18
2023-05-15T17:02:51.006Z,17.23
2023-05-15T17:05:18.590Z,17.27
2023-05-15T17:07:46.035Z,17.26
2023-05-15T17:10:13.562Z,17.24
2023-05-15T17:12:41.048Z,17.20
2023-05-15T17:15:10.949Z,16.66
2023-05-15T17:17:38.303Z,16.67
2023-05-15T17:20:07.082Z,16.70
2023-05-15T17:22:34.651Z,16.37
2023-05-15T17:25:02.153Z,16.17
2023-05-15T17:27:29.736Z,16.07
2023-05-15T17:29:57.328Z,15.92
2023-05-15T17:32:26.263Z,16.02
2023-05-15T17:34:53.791Z,16.10
2023-05-15T17:37:21.169Z,16.30
2023-05-15T17:39:48.464Z,16.48
2023-05-15T17:42:15.895Z,16.57
2023-05-15T17:44:43.503Z,16.64
2023-05-15T17:47:11.036Z,16.69
2023-05-15T17:49:39.762Z,16.76
2023-05-15T17:52:07.906Z,16.68
2023-05-15T17:54:35.560Z,16.79
2023-05-15T17:57:03.214Z,16.89
2023-05-15T17:59:30.492Z,16.78
2023-05-15T18:01:58.188Z,16.72
2023-05-15T18:04:25.696Z,16.66
2023-05-15T18:06:54.500Z,16.57
2023-05-15T18:09:24.012Z,16.55
2023-05-15T18:11:51.893Z,16.49
2023-05-15T18:14:19.306Z,16.50
2023-05-15T18:16:46.637Z,16.46
2023-05-15T18:19:14.175Z,16.53
2023-05-15T18:21:41.500Z,16.19
2023-05-15T18:24:10.616Z,15.85
2023-05-15T18:26:38.101Z,16.06
2023-05-15T18:29:05.684Z,16.27
2023-05-15T18:31:33.038Z,16.43
2023-05-15T18:34:00.941Z,16.29
2023-05-15T18:36:28.235Z,16.23
2023-05-15T18:38:55.520Z,16.05
2023-05-15T18:41:24.274Z,16.13
2023-05-15T18:43:51.589Z,16.06
2023-05-15T18:46:18.912Z,16.12
2023-05-15T18:48:46.328Z,16.07
2023-05-15T18:51:13.706Z,16.03
2023-05-15T18:53:41.156Z,16.03
2023-05-15T18:56:08.453Z,15.89
2023-05-15T18:58:37.220Z,15.57
2023-05-15T19:01:04.613Z,14.83
2023-05-15T19:03:33.022Z,14.25
2023-05-15T19:06:00.407Z,14.13
2023-05-15T19:08:27.883Z,14.17
2023-05-15T19:10:55.217Z,14.23
2023-05-15T19:13:22.537Z,14.32
2023-05-15T19:15:54.300Z,14.36
2023-05-15T19:18:21.574Z,14.37
2023-05-15T19:20:49.950Z,14.38
2023-05-15T19:23:17.379Z,14.59
2023-05-15T19:25:44.809Z,14.72
2023-05-15T19:28:12.153Z,14.66
2023-05-15T19:30:39.527Z,14.74
2023-05-15T19:33:08.784Z,14.82
2023-05-15T19:35:37.727Z,14.77
2023-05-15T19:38:05.174Z,14.71
2023-05-15T19:40:32.476Z,14.55
2023-05-15T19:43:00.019Z,14.59
2023-05-15T19:45:27.348Z,14.54
2023-05-15T19:47:54.676Z,14.56
2023-05-15T19:50:23.424Z,14.50
2023-05-15T19:52:50.952Z,14.51
2023-05-15T19:55:18.432Z,14.61
2023-05-15T19:57:45.810Z,14.64
2023-05-15T20:00:14.233Z,14.64
2023-05-15T20:02:41.657Z,14.67
2023-05-15T20:05:09.685Z,14.39
2023-05-15T20:07:38.701Z,14.36
2023-05-15T20:10:09.646Z,14.21
2023-05-15T20:12:37.090Z,14.33
2023-05-15T20:15:05.498Z,14.47
2023-05-15T20:17:33.519Z,14.53
2023-05-15T20:20:01.093Z,14.50
2023-05-15T20:22:28.536Z,14.44
2023-05-15T20:24:57.250Z,14.44
2023-05-15T20:27:24.527Z,14.53
2023-05-15T20:29:51.927Z,14.45
2023-05-15T20:32:19.494Z,14.36
2023-05-15T20:34:46.915Z,14.42
2023-05-15T20:37:14.205Z,14.38
2023-05-15T20:39:41.547Z,14.39
2023-05-15T20:42:10.357Z,14.44
2023-05-15T20:44:37.640Z,14.43
2023-05-15T20:47:05.521Z,14.36
2023-05-15T20:49:32.863Z,14.39
2023-05-15T20:52:00.579Z,14.27
2023-05-15T20:54:27.934Z,14.27
2023-05-15T20:56:55.275Z,14.23
2023-05-15T20:59:24.045Z,14.30
2023-05-15T21:01:51.395Z,14.18
2023-05-15T21:04:18.726Z,14.11
2023-05-15T21:06:46.002Z,14.18
2023-05-15T21:09:13.945Z,14.07
2023-05-15T21:11:41.211Z,14.27
2023-05-15T21:14:08.750Z,14.38
2023-05-15T21:16:37.554Z,14.16
2023-05-15T21:19:05.091Z,14.18
2023-05-15T21:21:32.477Z,14.27
2023-05-15T21:24:01.497Z,14.45
2023-05-15T21:26:28.918Z,14.47
2023-05-15T21:28:56.966Z,14.49
2023-05-15T21:31:24.421Z,14.26
2023-05-15T21:33:53.485Z,14.34
2023-05-15T21:36:21.212Z,14.24
2023-05-15T21:38:48.571Z,14.08
2023-05-15T21:41:16.067Z,14.21
2023-05-15T21:43:43.472Z,14.36
2023-05-15T21:46:10.822Z,14.37
2023-05-15T21:48:38.146Z,14.21
2023-05-15T21:51:07.019Z,14.20
2023-05-15T21:53:34.394Z,14.11
2023-05-15T21:56:02.480Z,14.01
2023-05-15T21:58:30.046Z,13.95
2023-05-15T22:00:57.474Z,13.82
2023-05-15T22:03:24.912Z,13.92
2023-05-15T22:05:52.456Z,14.00
2023-05-15T22:08:21.265Z,14.03
2023-05-15T22:10:48.822Z,14.05
2023-05-15T22:13:16.211Z,14.11
2023-05-15T22:15:43.552Z,13.99
2023-05-15T22:18:10.853Z,14.02
2023-05-15T22:20:38.319Z,13.95
2023-05-15T22:23:06.022Z,13.92
2023-05-15T22:25:34.728Z,13.78
2023-05-15T22:28:02.169Z,13.64
2023-05-15T22:30:29.674Z,13.50
2023-05-15T22:32:57.134Z,13.62
2023-05-15T22:35:24.901Z,13.59
2023-05-15T22:37:52.435Z,13.58
2023-05-15T22:40:19.988Z,13.61
2023-05-15T22:42:48.661Z,13.70
2023-05-15T22:45:17.306Z,13.72
2023-05-15T22:47:45.897Z,13.78
2023-05-15T22:50:13.349Z,13.65
2023-05-15T22:52:40.734Z,13.55
2023-05-15T22:55:09.213Z,13.67
2023-05-15T22:57:36.577Z,13.57
2023-05-15T23:00:06.564Z,13.68
2023-05-15T23:02:34.140Z,13.69
2023-05-15T23:05:01.500Z,13.74
2023-05-15T23:07:28.816Z,13.69
2023-05-15T23:09:56.130Z,13.80
2023-05-15T23:12:23.516Z,13.70
2023-05-15T23:14:51.107Z,13.72
2023-05-15T23:17:19.870Z,13.50
2023-05-15T23:19:47.361Z,13.63
2023-05-15T23:22:14.696Z,13.77
2023-05-15T23:24:41.997Z,13.86
2023-05-15T23:27:09.533Z,13.93
2023-05-15T23:29:37.069Z,13.94
2023-05-15T23:32:05.082Z,13.96
2023-05-15T23:34:33.733Z,13.98
2023-05-15T23:37:01.120Z,14.00
2023-05-15T23:39:28.422Z,14.01
2023-05-15T23:41:56.675Z,13.98
2023-05-15T23:44:23.969Z,14.04
2023-05-15T23:46:51.308Z,13.99
2023-05-15T23:49:18.679Z,14.01
2023-05-15T23:51:47.431Z,13.97
2023-05-15T23:54:14.701Z,13.97
2023-05-15T23:56:42.163Z,13.98
2023-05-15T23:59:09.446Z,13.93
